Aviation Digital Data Service (ADDS)

Output produced by METARs form (0538 UTC 27 May 2015)
found at http://www.aviationweather.gov/adds/metars/
 
KPHL 262330Z 2700/2806 20008KT P6SM SCT100 
     FM270800 21008KT P6SM SCT015 BKN100 
     TEMPO 2710/2714 4SM BR BKN015 
     FM271500 21010G18KT P6SM SCT045 
     FM280000 20008KT P6SM BKN045